Timeline UpdatesTrip UpdatesNews PostsPvt Posts♥♥Travel TipsAdmin PostsConv PostsFollowed PostsChat RequestsBlog PostsPNR Posts

Disclaimer
Search
 
 
Fri Nov 28, 2014 09:45:50 ISTHomeTrainsΣChainsAtlasPNRForumGalleryNewsFAQTripsMembersLoginFeedback
No Recent News for this Train
Other Trains in the News **new
Latest...
Cancelled from 31/12/14-15/2/15 #1263410
Sat Nov 01, 2014 (07:19PM)
⇐ Return Journey: Train# 15484

14083⇒15483/Sikkim Mahananda Express

Nov 28 departure has been Rescheduled to start 13h 10m late
New Time: 23:00
NO Time-Table Change.
Nov 01 (7:19PM)
Change Departure Station:
Change Arrival Station:
Post a Train Travel TipPost a Train Travel Tip **new
Post a Comment/Question/Picture/VideoPost a Comment/Question/Picture/Video
Pantry/Catering
✓ Pantry Car Avbl
✓ Catering Avbl
RSA - Rake Sharing
Rake/Coach Composition
LOCO-SLR-GS-GS-GS-AB-B1-PC-S11-S10-S9-S8-S7-S6-S5-S4-S3-S2-S1-GS-GS-GS-SLR
Loco
SGUJ WDP-4 (APDJ to PNBE), GZB/MGS WAP-4 (PNBE to DLI)
News    PNR    Forum    Time-Table    Availability    Fare Chart    Map    Arr/Dep History    Trips    Gallery    ΣChains    X/O    Timeline    
Travel Time: 36h 50m    56 halts    Distance: 1653 km    Avg Speed: 44 km/hr
Type: Mail/Express
Zone: NFR/Northeast Frontier
Departs @ 09:50 (Avg 3h 49m late)
Platform# 1
SMTWTFS
Alipur Duar Junction/APDJ 
Arrives @ 22:40 +1 night (Avg 3h 8m late)
Platform# 11
SMTWTFS
Old Delhi Junction/DLI 

56 halts. 292 intermediate Stations between Alipur Duar Junction and Old Delhi Junction

Show ALL intermediate Stations  

#TrkCodeStation NameX/OArrivesAvgDepartsAvgHaltPFDay#KmSpeedElevZoneAddress
1|--|APDJAlipur Duar Junction (3)»  -09:50+3:49110.07053mNFRDist - Alipurduar, West Bengal
2|--|HSAHasimara (3)X  10:20+3:4910:22+3:502m--134.863123mNFRDist - Alipurduar, West Bengal
3|--|DLODalgaon (3)  10:46+3:5710:47+3:591m1160.138120mNFRDist : Alipurduar, West Bengal
4|--|BNVBinnaguri (3)  11:01+3:5111:02+3:421m--169.165132mNFRDist : jalpaiguri, West Bengal
5|--|NMZNew Mal Junction (3)  11:43+3:5311:48+3:525m--1113.443161mNFRDist - Jalpaiguri, West Bengal
6|--|SGUJSiliguri Junction (6)X  12:55+3:4113:00+3:385m--1161.212120mNFRDist - Darjeeling, West Bengal
7|--|NJPNew Jalpaiguri Junction (8)X  13:35+3:2913:55+3:3120m31168.577114mNFRCity-Siliguri . Dist-Jalpaiguri, West Bengal
8%==%AUBAluabari Road (2)O  14:39+3:4714:41+3:372m21225.2630mNFRDist - uttar Dinajpur, West Bengal
9%==%KNEKishanGanj (3)O  15:10+3:3715:15+3:365m21255.87152mNFRKishanganj, Bihar
10%==%DLKDalkhola (3)X  15:39+3:4115:40+3:421m101284.35844mNFRDalkola, West Bengal
11%==%BOEBarsoi Junction (3)X  16:10+3:4316:12+3:442m--1313.45337mNFRdist- katihar, Bihar
12%==%AZRAzamnagar Road (3)X  16:27+3:4416:28+3:461m--1326.73134mNFRAzamnagar, Bihar
13%--%LAVLabha (2)  17:10+3:3117:11+3:331m11348.41529mNFRDist : Katihar, Bihar
14%--%KIRKatihar Junction (7)X  18:45+3:2619:00+3:2915m51371.44635mNFRKatihar 854105, Bihar
15%-=%SMOSemapurX  19:15+3:1419:16+3:151m--1382.96535mECRKatihar, Bihar
16%==%CRRKaragola Road  19:26+3:1719:27+3:201m--1393.67836mECRLachhmipur, Bihar
17%=-%KUEKurselaX  19:40+3:2519:41+3:271m--1410.64831mECRNH 31, Bihar
18%==%NNANaugachia (3)  20:04+3:2720:05+3:281m--1429.16437mECRBhagalpur, Bihar
19%==%THBThana Bihpur Junction (3)  20:20+3:3020:21+3:321m--1445.05139mECRThana Bihpur, Bihar
20%==%NNRNarayanpur (2)  20:30+3:3520:31+3:251m--1452.75439mECRNarayanpur, Bihar
21%==%PSRPasraha (3)  20:44+3:2720:45+3:301m--1464.35341mECRPasraha, Bihar
22%==%MSKMahes Khunt (2)X  20:59+3:3421:00+3:401m--1476.65737mECRMaheshkhunt, Bihar
23%==%MNEMansi Junction (4)X  21:11+3:4321:12+3:461m--1487.03343mECRMansi, Bihar
24%=-|KGGKhagaria Junction (3)X  21:28+3:5121:29+3:551m--1495.86243mECRKhagaria, Bihar
25%==%SKJSahibpur Kamal Junction (2)  21:41+3:5721:42+3:591m--1508.24241mECRShahpur Kamal, Bihar
26%==%LKNLakhminia (3)X  21:56+3:5721:57+3:581m--1517.93645mECRBegusarai, Bihar
27%==%BGSBegusarai (3)  22:27+3:3022:28+3:321m--1535.72246mECRBegusarai, Bihar
28%--/BJUBarauni Junction (9)X  23:05+3:1023:10+3:125m11549.22849mECRBegusarai, Bihar
29/--/MKAMokama Junction (4)  23:54+4:1123:56+4:132m31569.88848mECRPatna, Bihar
30/==/BKPBakhtiyarpur Junction (5)X  00:26+4:2500:28+4:272m--2613.74851mECRPatna, Bihar
31/==/PNBEPatna Junction (10)X  01:25+3:5801:50+4:0225m42659.13557mECRPatna 800001, Bihar
32/==/DNRDanapur (5)  02:06+4:2202:08+4:222m--2668.59158mECRKhagaul, Bihar
33/==/ARAAra Junction (3)X  02:34+4:3302:36+4:332m--2708.07163mECRDistt: Bhojpur Ph 06182-233411, Bihar
34/==/BXRBuxar (3)X  03:34+4:0603:36+4:062m22776.54767mECRBuxar, Bihar
35/==/MGSMughal Sarai Junction (8)  05:35+3:4405:45+3:4910m42870.44583mECRDistt: Chandauli Pin 232101, Uttar Pradesh
36/==/MZPMirzapur (3)XO  07:09+4:2107:10+4:251m--2933.64088mNCRMirzapur, Uttar Pradesh
37/==/BDLVindhyachal (3)  07:21+3:4607:22+3:501m--2940.97788mNCRMirzapur, Uttar Pradesh
38/==/NYNNaini Junction (4)  08:20+5:1508:22+5:152m221015.72498mNCRAllahabad, Uttar Pradesh
39/==/ALDAllahabad Junction (10)XOO  08:40+4:5608:55+5:0315m321022.864100mNCRAllahabad 211003, Uttar Pradesh
40/==/FTPFatehpur (3)  10:44+4:4710:45+4:491m--21139.552120mNCRFatehpur, Uttar Pradesh
41/==/CNBKanpur Central (10)X  12:15+4:5012:25+4:5210m521217.129128mNCRKANPUR-208 001, Uttar Pradesh
42/==/PNKPanki (3)XO  12:49+4:0712:50+4:081m--21228.637129mNCRKANPUR-208 020, Uttar Pradesh
43/==/RURARura (4)  13:43+3:3913:44+3:421m--21261.457137mNCRJhinjhak, Uttar Pradesh
44/==/JJKJhinjhak (3)  14:04+3:3614:05+3:391m321280.570140mNCRAuraiya, Uttar Pradesh
45/==/PHDPhaphund (4)  14:22+4:2314:23+4:281m--21300.363146mNCRdist. Auraiya, Uttar Pradesh
46/==/ULDAchalda (3)  14:39+3:3814:40+3:441m--21317.165147mNCRDist. Auraiya(05688-1072), Uttar Pradesh
47/==/BNTBharthana (3)  14:58+3:1814:59+3:261m--21336.652147mNCRBharthana, Uttar Pradesh
48/==/ETWEtawah (5)  15:22+3:5915:23+4:011m221356.574154mNCRDistt. Etawah, Uttar Pradesh
49/==/SKBShikohabad Junction (4)  16:08+3:3116:09+3:331m321411.957166mNCRDistrict Firozabad, Uttar Pradesh
50/==/FZDFirozabad (4)XO  16:30+3:3216:31+3:371m321431.816164mNCRFirozabad, Uttar Pradesh
51/==/TDLTundla Junction (5)XO  17:35+4:0517:45+4:0510m221448.370167mNCRDistt.Firozabad, Uttar Pradesh
52/==/JLSJalesar Road (1)X  18:09+3:0218:10+3:031m121476.255172mNCRMDR 106W, Uttar Pradesh
53/==/HRSHathras Junction (3)X  18:32+3:0118:33+3:031m--21496.382183mNCRMahamaya Nagar(05722-242803), Uttar Pradesh
54/==/ALJNAligarh Junction (4)O  18:55+3:0919:00+3:095m221526.449192mNCRAligarh, Uttar Pradesh
55/==/KRJKhurja Junction (4)XO  19:53+1:1519:58+1:165m--21569.935199mNCRBulandshahr, Uttar Pradesh
56/==/GZBGhaziabad Junction (6)X  21:45+2:3521:47+2:352m321632.648217mNRGhaziabad, Uttar Pradesh
57/==/DSAShahdara Junction (4)  22:04+3:5622:05+3:561m--21646.211212mNRCircular Rd, Delhi NCT
58/==/DLIOld Delhi Junction (16)•  22:40+3:08-1121652.5-219mNRNear Chandni Chowk Metro Station, Delhi NCT
Scroll to Top
Scroll to Bottom